createdAt,value
2018-08-13T00:01:52.001Z,38.69
2018-08-13T00:04:20.175Z,37.98
2018-08-13T00:06:49.298Z,37.71
2018-08-13T00:09:49.629Z,37.17
2018-08-13T00:12:17.943Z,38.08
2018-08-13T00:14:46.248Z,38.44
2018-08-13T00:17:16.435Z,39.15
2018-08-13T00:19:44.587Z,38.96
2018-08-13T00:22:13.031Z,38.84
2018-08-13T00:24:41.652Z,38.52
2018-08-13T00:27:09.951Z,39.38
2018-08-13T00:29:38.331Z,39.62
2018-08-13T00:32:06.469Z,39.28
2018-08-13T00:34:34.643Z,39.50
2018-08-13T00:37:02.803Z,39.15
2018-08-13T00:39:31.428Z,39.45
2018-08-13T00:42:00.945Z,39.06
2018-08-13T00:44:29.718Z,38.83
2018-08-13T00:46:58.219Z,39.86
2018-08-13T00:49:26.425Z,39.42
2018-08-13T00:51:54.679Z,39.13
2018-08-13T00:54:22.902Z,39.06
2018-08-13T00:56:51.078Z,39.81
2018-08-13T00:59:20.879Z,39.54
2018-08-13T01:01:49.061Z,40.19
2018-08-13T01:04:17.229Z,40.29
2018-08-13T01:06:46.456Z,40.24
2018-08-13T01:09:14.913Z,40.57
2018-08-13T01:11:43.131Z,41.18
2018-08-13T01:14:12.452Z,41.37
2018-08-13T01:16:41.426Z,41.08
2018-08-13T01:19:09.812Z,41.17
2018-08-13T01:21:38.942Z,41.06
2018-08-13T01:24:08.093Z,41.40
2018-08-13T01:26:36.914Z,42.41
2018-08-13T01:29:05.825Z,42.72
2018-08-13T01:31:34.445Z,42.75
2018-08-13T01:34:02.684Z,42.34
2018-08-13T01:36:31.828Z,42.50
2018-08-13T01:39:00.303Z,42.95
2018-08-13T01:41:29.173Z,43.68
2018-08-13T01:43:59.037Z,43.88
2018-08-13T01:46:28.173Z,43.86
2018-08-13T01:48:57.025Z,43.47
2018-08-13T01:51:26.425Z,44.74
2018-08-13T01:53:55.595Z,44.45
2018-08-13T01:56:24.248Z,44.82
2018-08-13T01:58:53.066Z,44.76
2018-08-13T02:01:21.729Z,44.09
2018-08-13T02:03:49.965Z,44.48
2018-08-13T02:06:18.292Z,44.58
2018-08-13T02:08:46.517Z,45.35
2018-08-13T02:11:14.958Z,45.95
2018-08-13T02:13:43.379Z,45.49
2018-08-13T02:16:11.781Z,46.63
2018-08-13T02:18:46.705Z,46.02
2018-08-13T02:21:14.923Z,47.00
2018-08-13T02:23:44.127Z,47.22
2018-08-13T02:26:12.601Z,46.73
2018-08-13T02:28:40.862Z,47.29
2018-08-13T02:31:09.384Z,47.29
2018-08-13T02:33:37.571Z,47.07
2018-08-13T02:36:06.085Z,47.48
2018-08-13T02:38:34.479Z,47.70
2018-08-13T02:41:03.042Z,47.83
2018-08-13T02:43:31.277Z,48.36
2018-08-13T02:45:59.520Z,49.06
2018-08-13T02:48:27.768Z,48.25
2018-08-13T02:50:56.299Z,48.74
2018-08-13T02:53:24.464Z,49.38
2018-08-13T02:55:55.998Z,49.28
2018-08-13T02:58:24.216Z,49.59
2018-08-13T03:00:52.574Z,49.76
2018-08-13T03:03:20.752Z,50.18
2018-08-13T03:05:49.144Z,50.00
2018-08-13T03:08:17.404Z,49.49
2018-08-13T03:10:45.626Z,49.07
2018-08-13T03:13:13.828Z,50.14
2018-08-13T03:15:42.022Z,49.17
2018-08-13T03:18:10.300Z,49.77
2018-08-13T03:20:38.746Z,49.28
2018-08-13T03:23:07.458Z,49.30
2018-08-13T03:25:35.834Z,49.89
2018-08-13T03:28:04.112Z,49.79
2018-08-13T03:30:33.092Z,50.91
2018-08-13T03:33:01.385Z,51.00
2018-08-13T03:35:30.650Z,51.68
2018-08-13T03:37:59.160Z,51.80
2018-08-13T03:40:28.491Z,51.78
2018-08-13T03:42:56.722Z,51.48
2018-08-13T03:45:25.215Z,51.49
2018-08-13T03:47:53.754Z,51.65
2018-08-13T03:50:22.130Z,51.63
2018-08-13T03:52:50.396Z,51.62
2018-08-13T03:55:18.839Z,51.79
2018-08-13T03:57:47.270Z,51.68
2018-08-13T04:00:16.133Z,51.42
2018-08-13T04:02:44.675Z,52.01
2018-08-13T04:05:13.905Z,52.32
2018-08-13T04:07:42.214Z,52.09
2018-08-13T04:10:12.007Z,51.78
2018-08-13T04:12:41.787Z,52.29
2018-08-13T04:15:11.544Z,51.93
2018-08-13T04:17:39.825Z,50.98
2018-08-13T04:20:10.493Z,50.54
2018-08-13T04:22:38.777Z,50.09
2018-08-13T04:25:08.314Z,50.62
2018-08-13T04:27:36.897Z,49.82
2018-08-13T04:30:12.978Z,50.16
2018-08-13T04:32:42.141Z,50.73
2018-08-13T04:35:10.549Z,50.06
2018-08-13T04:37:39.615Z,49.50
2018-08-13T04:40:10.727Z,49.27
2018-08-13T04:42:39.288Z,49.85
2018-08-13T04:45:08.252Z,49.38
2018-08-13T04:47:36.648Z,49.54
2018-08-13T04:50:07.422Z,48.99
2018-08-13T04:52:36.164Z,48.69
2018-08-13T04:55:06.501Z,48.06
2018-08-13T04:57:36.210Z,48.40
2018-08-13T05:00:06.308Z,48.14
2018-08-13T05:02:34.721Z,47.24
2018-08-13T05:05:03.858Z,47.52
2018-08-13T05:07:32.418Z,47.20
2018-08-13T05:10:00.741Z,47.17
2018-08-13T05:12:29.284Z,47.36
2018-08-13T05:14:57.666Z,47.30
2018-08-13T05:17:27.156Z,46.98
2018-08-13T05:19:55.344Z,47.05
2018-08-13T05:22:23.579Z,46.02
2018-08-13T05:24:51.830Z,46.04
2018-08-13T05:27:20.374Z,45.75
2018-08-13T05:29:48.580Z,45.53
2018-08-13T05:32:16.842Z,45.50
2018-08-13T05:34:45.069Z,45.31
2018-08-13T05:37:13.337Z,44.13
2018-08-13T05:39:42.958Z,42.96
2018-08-13T05:42:12.543Z,40.02
2018-08-13T05:44:40.773Z,39.16
2018-08-13T05:47:09.083Z,37.66
2018-08-13T05:49:37.299Z,36.82
2018-08-13T05:52:05.723Z,35.55
2018-08-13T05:54:33.947Z,34.18
2018-08-13T05:57:02.221Z,33.58
2018-08-13T05:59:30.437Z,33.17
2018-08-13T06:01:58.767Z,31.50
2018-08-13T06:04:26.985Z,30.63
2018-08-13T06:06:55.239Z,29.69
2018-08-13T06:09:23.625Z,28.97
2018-08-13T06:11:52.359Z,28.51
2018-08-13T06:14:20.770Z,28.93
2018-08-13T06:16:48.959Z,28.10
2018-08-13T06:19:17.231Z,26.32
2018-08-13T06:21:45.474Z,26.50
2018-08-13T06:24:13.792Z,25.17
2018-08-13T06:26:42.034Z,23.78
2018-08-13T06:29:11.006Z,23.78
2018-08-13T06:31:39.253Z,22.38
2018-08-13T06:34:07.664Z,22.99
2018-08-13T06:36:35.934Z,23.49
2018-08-13T06:39:07.506Z,21.84
2018-08-13T06:41:35.794Z,20.07
2018-08-13T06:44:04.509Z,19.03
2018-08-13T06:46:32.859Z,18.73
2018-08-13T06:49:01.082Z,19.50
2018-08-13T06:51:29.344Z,18.89
2018-08-13T06:53:57.542Z,18.88
2018-08-13T06:56:26.446Z,17.89
2018-08-13T06:58:54.660Z,17.52
2018-08-13T07:01:22.895Z,16.96
2018-08-13T07:03:51.160Z,16.87
2018-08-13T07:06:19.806Z,15.90
2018-08-13T07:08:48.204Z,15.55
2018-08-13T07:11:16.492Z,16.25
2018-08-13T07:13:44.810Z,15.35
2018-08-13T07:16:13.044Z,15.65
2018-08-13T07:18:42.134Z,15.49
2018-08-13T07:21:10.440Z,14.60
2018-08-13T07:23:38.812Z,13.58
2018-08-13T07:26:07.209Z,13.18
2018-08-13T07:28:36.190Z,13.28
2018-08-13T07:31:04.806Z,12.71
2018-08-13T07:33:33.277Z,13.56
2018-08-13T07:36:01.585Z,12.48
2018-08-13T07:38:29.841Z,11.98
2018-08-13T07:40:58.402Z,12.17
2018-08-13T07:43:26.676Z,12.08
2018-08-13T07:45:54.905Z,11.09
2018-08-13T07:48:23.114Z,10.66
2018-08-13T07:50:51.307Z,11.16
2018-08-13T07:53:19.638Z,11.12
2018-08-13T07:55:47.861Z,11.13
2018-08-13T07:58:16.061Z,11.15
2018-08-13T08:00:44.333Z,10.72
2018-08-13T08:03:12.599Z,10.05
2018-08-13T08:05:41.085Z,9.72
2018-08-13T08:08:09.379Z,9.41
2018-08-13T08:10:37.841Z,9.75
2018-08-13T08:13:06.567Z,8.81
2018-08-13T08:15:34.884Z,8.80
2018-08-13T08:18:04.179Z,7.94
2018-08-13T08:20:32.575Z,7.67
2018-08-13T08:23:00.974Z,7.32
2018-08-13T08:25:30.220Z,7.70
2018-08-13T08:27:59.948Z,6.99
2018-08-13T08:30:28.242Z,6.87
2018-08-13T08:32:56.523Z,7.32
2018-08-13T08:35:25.032Z,7.41
2018-08-13T08:37:53.408Z,7.08
2018-08-13T08:40:21.663Z,7.01
2018-08-13T08:42:50.265Z,7.05
2018-08-13T08:45:22.894Z,7.04
2018-08-13T08:47:53.250Z,6.85
2018-08-13T08:50:22.620Z,6.45
2018-08-13T08:52:50.910Z,6.48
2018-08-13T08:55:19.358Z,6.02
2018-08-13T08:57:48.924Z,5.63
2018-08-13T09:00:20.844Z,5.81
2018-08-13T09:02:49.292Z,6.02
2018-08-13T09:05:17.580Z,5.55
2018-08-13T09:07:46.236Z,6.26
2018-08-13T09:10:14.661Z,5.46
2018-08-13T09:12:42.925Z,5.33
2018-08-13T09:15:14.513Z,4.44
2018-08-13T09:17:59.816Z,4.82
2018-08-13T09:20:45.233Z,5.68
2018-08-13T09:23:30.651Z,5.58
2018-08-13T09:26:16.139Z,5.09
2018-08-13T09:29:01.347Z,4.02
2018-08-13T09:32:11.410Z,3.83
2018-08-13T09:34:55.265Z,3.73
2018-08-13T09:37:23.635Z,4.46
2018-08-13T09:39:52.886Z,3.78
2018-08-13T09:42:21.705Z,3.26
2018-08-13T09:44:49.964Z,3.84
2018-08-13T09:47:18.234Z,2.79
2018-08-13T09:49:46.507Z,4.27
2018-08-13T09:52:14.725Z,3.97
2018-08-13T09:54:43.740Z,3.75
2018-08-13T09:57:12.644Z,3.85
2018-08-13T09:59:40.912Z,3.47
2018-08-13T10:02:09.127Z,4.10
2018-08-13T10:04:37.403Z,4.25
2018-08-13T10:07:06.105Z,4.13
2018-08-13T10:09:34.485Z,5.48
2018-08-13T10:12:03.474Z,5.44
2018-08-13T10:14:31.863Z,5.23
2018-08-13T10:17:00.072Z,4.52
2018-08-13T10:19:28.369Z,3.41
2018-08-13T10:21:56.593Z,5.29
2018-08-13T10:24:24.958Z,4.60
2018-08-13T10:26:53.159Z,5.33
2018-08-13T10:29:22.144Z,4.82
2018-08-13T10:31:50.326Z,3.94
2018-08-13T10:34:18.650Z,3.68
2018-08-13T10:36:47.231Z,3.85
2018-08-13T10:39:15.772Z,4.62
2018-08-13T10:41:45.075Z,4.73
2018-08-13T10:44:13.337Z,3.95
2018-08-13T10:46:41.611Z,3.89
2018-08-13T10:49:09.769Z,3.73
2018-08-13T10:51:37.992Z,3.27
2018-08-13T10:54:06.419Z,3.80
2018-08-13T10:56:34.687Z,3.51
2018-08-13T10:59:04.638Z,3.46
2018-08-13T11:01:32.908Z,3.35
2018-08-13T11:04:01.134Z,3.94
2018-08-13T11:06:29.472Z,3.27
2018-08-13T11:08:57.700Z,4.05
2018-08-13T11:11:26.866Z,4.85
2018-08-13T11:13:55.408Z,3.50
2018-08-13T11:16:23.679Z,3.22
2018-08-13T11:18:52.065Z,3.57
2018-08-13T11:21:20.269Z,2.90
2018-08-13T11:23:48.528Z,3.11
2018-08-13T11:26:17.802Z,4.20
2018-08-13T11:28:46.326Z,5.29
2018-08-13T11:31:14.566Z,7.94
2018-08-13T11:33:42.990Z,8.84
2018-08-13T11:36:11.505Z,9.61
2018-08-13T11:38:39.741Z,10.36
2018-08-13T11:41:08.201Z,10.67
2018-08-13T11:43:36.504Z,9.74
2018-08-13T11:46:04.797Z,7.76
2018-08-13T11:48:33.045Z,7.73
2018-08-13T11:51:01.887Z,8.43
2018-08-13T11:53:30.153Z,9.62
2018-08-13T11:55:58.481Z,11.06
2018-08-13T11:58:26.781Z,13.07
2018-08-13T12:00:55.220Z,13.80
2018-08-13T12:03:23.653Z,15.03
2018-08-13T12:05:51.921Z,16.57
2018-08-13T12:08:20.217Z,17.57
2018-08-13T12:10:48.447Z,17.04
2018-08-13T12:13:17.325Z,17.12
2018-08-13T12:15:45.712Z,16.74
2018-08-13T12:18:14.346Z,16.25
2018-08-13T12:20:42.685Z,15.75
2018-08-13T12:23:10.972Z,14.57
2018-08-13T12:25:39.610Z,13.41
2018-08-13T12:28:07.952Z,12.65
2018-08-13T12:30:36.472Z,13.54
2018-08-13T12:33:05.834Z,13.98
2018-08-13T12:35:34.091Z,13.46
2018-08-13T12:38:02.469Z,14.11
2018-08-13T12:40:30.974Z,13.73
2018-08-13T12:42:59.314Z,15.46
2018-08-13T12:45:28.051Z,14.99
2018-08-13T12:47:56.946Z,15.83
2018-08-13T12:50:25.185Z,16.24
2018-08-13T12:52:53.569Z,17.43
2018-08-13T12:55:22.011Z,17.48
2018-08-13T12:57:50.414Z,17.66
2018-08-13T13:00:19.046Z,17.51
2018-08-13T13:02:47.298Z,17.20
2018-08-13T13:05:16.545Z,17.03
2018-08-13T13:07:44.880Z,17.65
2018-08-13T13:10:14.549Z,17.90
2018-08-13T13:12:43.333Z,17.99
2018-08-13T13:15:17.194Z,18.64
2018-08-13T13:17:45.621Z,20.20
2018-08-13T13:20:19.594Z,21.21
2018-08-13T13:22:48.447Z,21.93
2018-08-13T13:25:17.147Z,22.78
2018-08-13T13:27:45.496Z,23.72
2018-08-13T13:30:15.255Z,24.99
2018-08-13T13:32:43.853Z,26.18
2018-08-13T13:35:14.518Z,27.31
2018-08-13T13:37:42.977Z,29.17
2018-08-13T13:40:13.525Z,29.80
2018-08-13T13:42:41.841Z,30.83
2018-08-13T13:45:10.912Z,30.54
2018-08-13T13:47:39.351Z,32.79
2018-08-13T13:50:11.746Z,33.32
2018-08-13T13:52:40.001Z,35.51
2018-08-13T13:55:08.289Z,36.33
2018-08-13T13:57:36.541Z,37.14
2018-08-13T14:00:17.318Z,36.81
2018-08-13T14:02:47.486Z,39.07
2018-08-13T14:05:15.826Z,38.92
2018-08-13T14:07:44.142Z,39.93
2018-08-13T14:10:19.506Z,40.47
2018-08-13T14:12:47.823Z,39.80
2018-08-13T14:15:20.521Z,39.90
2018-08-13T14:17:49.354Z,40.37
2018-08-13T14:20:18.411Z,40.42
2018-08-13T14:22:46.741Z,42.76
2018-08-13T14:25:15.596Z,44.59
2018-08-13T14:27:43.807Z,46.37
2018-08-13T14:30:28.182Z,47.75
2018-08-13T14:32:56.440Z,47.06
2018-08-13T14:35:24.989Z,47.97
2018-08-13T14:37:53.295Z,46.68
2018-08-13T14:40:21.574Z,45.30
2018-08-13T14:42:49.824Z,45.93
2018-08-13T14:45:18.859Z,45.29
2018-08-13T14:47:49.134Z,45.68
2018-08-13T14:50:17.361Z,46.26
2018-08-13T14:52:46.604Z,47.17
2018-08-13T14:55:19.869Z,47.30
2018-08-13T14:57:48.210Z,48.10
2018-08-13T15:00:20.964Z,48.34
2018-08-13T15:02:50.312Z,49.80
2018-08-13T15:05:18.608Z,48.77
2018-08-13T15:07:46.882Z,47.98
2018-08-13T15:10:20.258Z,48.29
2018-08-13T15:12:48.865Z,48.91
2018-08-13T15:15:17.274Z,49.54
2018-08-13T15:17:45.768Z,47.95
2018-08-13T15:20:20.163Z,48.22
2018-08-13T15:22:48.610Z,47.40
2018-08-13T15:25:17.116Z,48.00
2018-08-13T15:27:45.656Z,47.38
2018-08-13T15:30:15.828Z,49.08
2018-08-13T15:32:45.294Z,47.41
2018-08-13T15:35:14.253Z,47.65
2018-08-13T15:37:43.075Z,47.42
2018-08-13T15:40:11.596Z,47.09
2018-08-13T15:42:40.431Z,46.48
2018-08-13T15:45:12.315Z,46.50
2018-08-13T15:47:40.811Z,45.96
2018-08-13T15:50:11.185Z,45.96
2018-08-13T15:52:39.497Z,45.19
2018-08-13T15:55:08.316Z,45.02
2018-08-13T15:57:37.431Z,44.79
2018-08-13T16:00:07.693Z,45.79
2018-08-13T16:02:36.122Z,44.62
2018-08-13T16:05:06.715Z,45.46
2018-08-13T16:07:34.981Z,45.39
2018-08-13T16:10:05.469Z,45.37
2018-08-13T16:12:34.744Z,45.05
2018-08-13T16:15:03.084Z,45.97
2018-08-13T16:17:31.315Z,45.71
2018-08-13T16:19:59.691Z,46.42
2018-08-13T16:22:28.001Z,45.90
2018-08-13T16:24:56.324Z,46.09
2018-08-13T16:27:24.834Z,46.08
2018-08-13T16:29:53.157Z,45.87
2018-08-13T16:32:21.381Z,46.31
2018-08-13T16:34:49.594Z,45.76
2018-08-13T16:37:17.850Z,45.54
2018-08-13T16:39:46.097Z,45.27
2018-08-13T16:42:14.424Z,44.93
2018-08-13T16:44:42.627Z,44.05
2018-08-13T16:47:10.898Z,44.51
2018-08-13T16:49:39.146Z,44.04
2018-08-13T16:52:07.654Z,44.04
2018-08-13T16:54:36.249Z,43.29
2018-08-13T16:57:05.202Z,43.21
2018-08-13T16:59:33.503Z,42.79
2018-08-13T17:02:01.766Z,42.88
2018-08-13T17:04:30.244Z,42.79
2018-08-13T17:06:58.751Z,42.97
2018-08-13T17:09:27.022Z,43.40
2018-08-13T17:11:56.186Z,43.25
2018-08-13T17:14:24.600Z,43.05
2018-08-13T17:16:52.690Z,43.78
2018-08-13T17:19:21.019Z,43.59
2018-08-13T17:21:49.341Z,43.38
2018-08-13T17:24:17.572Z,43.65
2018-08-13T17:26:45.868Z,43.99
2018-08-13T17:29:14.183Z,44.68
2018-08-13T17:31:42.399Z,44.54
2018-08-13T17:34:11.083Z,45.02
2018-08-13T17:36:39.522Z,45.01
2018-08-13T17:39:15.077Z,44.65
2018-08-13T17:41:43.332Z,45.46
2018-08-13T17:44:12.635Z,45.11
2018-08-13T17:46:40.994Z,45.15
2018-08-13T17:49:09.338Z,44.60
2018-08-13T17:51:38.029Z,45.50
2018-08-13T17:54:06.624Z,44.86
2018-08-13T17:56:34.922Z,45.81
2018-08-13T17:59:03.321Z,46.17
2018-08-13T18:01:31.889Z,46.07
2018-08-13T18:04:00.104Z,46.31
2018-08-13T18:06:28.496Z,46.39
2018-08-13T18:08:57.650Z,45.99
2018-08-13T18:11:26.167Z,45.37
2018-08-13T18:13:54.615Z,46.43
2018-08-13T18:16:22.930Z,46.73
2018-08-13T18:18:51.855Z,47.12
2018-08-13T18:21:20.179Z,46.51
2018-08-13T18:23:48.572Z,46.46
2018-08-13T18:26:16.903Z,46.51
2018-08-13T18:28:45.216Z,46.95
2018-08-13T18:31:13.397Z,47.54
2018-08-13T18:33:41.673Z,47.16
2018-08-13T18:36:10.051Z,47.54
2018-08-13T18:38:38.516Z,47.70
2018-08-13T18:41:06.955Z,48.32
2018-08-13T18:43:35.331Z,48.00
2018-08-13T18:46:03.892Z,48.85
2018-08-13T18:48:32.175Z,48.90
2018-08-13T18:51:00.503Z,48.85
2018-08-13T18:53:28.792Z,49.55
2018-08-13T18:55:57.200Z,49.76
2018-08-13T18:58:25.466Z,49.35
2018-08-13T19:00:53.806Z,49.56
2018-08-13T19:03:22.304Z,49.50
2018-08-13T19:05:50.632Z,49.66
2018-08-13T19:08:18.973Z,50.28
2018-08-13T19:10:47.313Z,50.50
2018-08-13T19:13:15.847Z,50.40
2018-08-13T19:15:44.296Z,50.04
2018-08-13T19:18:12.717Z,51.04
2018-08-13T19:20:41.042Z,51.56
2018-08-13T19:23:09.413Z,51.32
2018-08-13T19:25:37.801Z,51.39
2018-08-13T19:28:06.715Z,51.68
2018-08-13T19:30:35.128Z,51.83
2018-08-13T19:33:03.540Z,52.38
2018-08-13T19:35:32.039Z,52.54
2018-08-13T19:38:01.235Z,53.10
2018-08-13T19:40:29.811Z,52.54
2018-08-13T19:42:59.135Z,52.01
2018-08-13T19:45:28.012Z,52.71
2018-08-13T19:47:56.641Z,52.62
2018-08-13T19:50:25.222Z,52.00
2018-08-13T19:52:53.599Z,51.70
2018-08-13T19:55:22.314Z,52.71
2018-08-13T19:57:51.148Z,52.22
2018-08-13T20:00:23.896Z,52.96
2018-08-13T20:02:53.049Z,52.50
2018-08-13T20:05:22.755Z,53.27
2018-08-13T20:07:51.516Z,52.82
2018-08-13T20:10:19.857Z,52.79
2018-08-13T20:12:48.371Z,53.52
2018-08-13T20:15:16.685Z,53.68
2018-08-13T20:17:45.257Z,53.88
2018-08-13T20:20:16.258Z,53.21
2018-08-13T20:22:45.421Z,53.02
2018-08-13T20:25:15.636Z,53.32
2018-08-13T20:27:44.453Z,53.38
2018-08-13T20:30:16.184Z,53.57
2018-08-13T20:32:45.732Z,53.87
2018-08-13T20:35:14.155Z,54.52
2018-08-13T20:37:42.575Z,53.63
2018-08-13T20:40:13.604Z,54.10
2018-08-13T20:42:42.360Z,54.53
2018-08-13T20:45:13.384Z,53.91
2018-08-13T20:47:42.022Z,53.76
2018-08-13T20:50:14.329Z,54.67
2018-08-13T20:52:43.178Z,53.64
2018-08-13T20:55:17.433Z,54.48
2018-08-13T20:57:47.161Z,54.47
2018-08-13T21:00:16.796Z,54.00
2018-08-13T21:02:46.153Z,54.71
2018-08-13T21:05:14.657Z,54.61
2018-08-13T21:07:43.458Z,54.62
2018-08-13T21:10:14.442Z,54.21
2018-08-13T21:12:42.681Z,54.99
2018-08-13T21:15:12.594Z,54.72
2018-08-13T21:17:40.986Z,54.56
2018-08-13T21:20:11.109Z,54.97
2018-08-13T21:22:39.336Z,55.04
2018-08-13T21:25:11.817Z,55.11
2018-08-13T21:27:42.947Z,54.64
2018-08-13T21:30:11.365Z,54.98
2018-08-13T21:32:40.769Z,55.61
2018-08-13T21:35:09.633Z,55.10
2018-08-13T21:37:38.170Z,54.86
2018-08-13T21:40:08.397Z,54.98
2018-08-13T21:42:36.691Z,55.27
2018-08-13T21:45:06.305Z,54.86
2018-08-13T21:47:34.707Z,55.07
2018-08-13T21:50:03.836Z,55.15
2018-08-13T21:52:32.090Z,55.93
2018-08-13T21:55:00.526Z,55.77
2018-08-13T21:57:28.817Z,55.89
2018-08-13T21:59:57.052Z,56.07
2018-08-13T22:02:26.305Z,55.38
2018-08-13T22:04:54.621Z,56.45
2018-08-13T22:07:22.822Z,56.67
2018-08-13T22:09:51.017Z,56.32
2018-08-13T22:12:20.682Z,56.71
2018-08-13T22:14:49.444Z,56.24
2018-08-13T22:17:17.980Z,56.72
2018-08-13T22:19:46.225Z,56.58
2018-08-13T22:22:15.380Z,56.81
2018-08-13T22:25:00.692Z,55.96
2018-08-13T22:27:29.180Z,55.87
2018-08-13T22:29:58.692Z,56.26
2018-08-13T22:32:27.641Z,56.78
2018-08-13T22:34:55.886Z,56.75
2018-08-13T22:37:24.239Z,57.39
2018-08-13T22:39:52.450Z,57.05
2018-08-13T22:42:21.149Z,57.99
2018-08-13T22:44:50.361Z,57.66
2018-08-13T22:47:19.054Z,57.82
2018-08-13T22:49:47.340Z,58.87
2018-08-13T22:52:15.827Z,58.44
2018-08-13T22:54:44.306Z,59.12
2018-08-13T22:57:12.650Z,59.06
2018-08-13T22:59:40.885Z,59.68
2018-08-13T23:02:09.317Z,59.86
2018-08-13T23:04:37.603Z,59.79
2018-08-13T23:07:06.322Z,59.95
2018-08-13T23:09:34.634Z,60.59
2018-08-13T23:12:05.912Z,60.67
2018-08-13T23:14:34.548Z,60.01
2018-08-13T23:17:03.005Z,60.57
2018-08-13T23:19:31.178Z,60.69
2018-08-13T23:21:59.943Z,60.29
2018-08-13T23:24:28.638Z,60.04
2018-08-13T23:26:57.288Z,60.88
2018-08-13T23:29:25.561Z,60.20
2018-08-13T23:31:53.799Z,60.22
2018-08-13T23:34:21.900Z,60.24
2018-08-13T23:36:50.121Z,60.31
2018-08-13T23:39:18.497Z,59.83
2018-08-13T23:41:46.831Z,60.19
2018-08-13T23:44:15.043Z,59.69
2018-08-13T23:46:43.251Z,59.83
2018-08-13T23:49:11.504Z,60.17
2018-08-13T23:51:39.745Z,59.75
2018-08-13T23:54:07.974Z,60.31
2018-08-13T23:56:36.339Z,60.54
2018-08-13T23:59:04.737Z,60.60
